Time;durP1;ratioP1;P1;durP2;ratioP2;P2;SDS_P1;SDS_P2;PMS_P1;PMS_P2;Temp;Humidity;BMP_temperature;BMP_pressure;BME280_temperature;BME280_humidity;BME280_pressure;Samples;Min_cycle;Max_cycle;Signal;HPM_P1;HPM_P2
2023/10/09 00:01:26;;;;;;;20.07;6.67;;;10.50;99.90;;;;;;5063745;28;20440;-59
2023/10/09 00:03:53;;;;;;;22.63;7.77;;;10.50;99.90;;;;;;5064061;28;20455;-58
2023/10/09 00:06:30;;;;;;;25.47;7.70;;;10.50;99.90;;;;;;5058081;28;20444;-59
2023/10/09 00:08:58;;;;;;;15.20;5.93;;;10.40;99.90;;;;;;5061150;28;20427;-59
2023/10/09 00:11:29;;;;;;;15.93;6.67;;;10.40;99.90;;;;;;5064357;28;20454;-59
2023/10/09 00:13:57;;;;;;;17.30;6.40;;;10.40;99.90;;;;;;5065893;28;20464;-59
2023/10/09 00:16:34;;;;;;;18.37;6.50;;;10.40;99.90;;;;;;5063640;28;20416;-58
2023/10/09 00:19:17;;;;;;;18.23;6.83;;;10.40;99.90;;;;;;5067364;28;20786;-58
2023/10/09 00:21:48;;;;;;;23.03;8.17;;;10.40;99.90;;;;;;5066652;28;20942;-59
2023/10/09 00:24:17;;;;;;;19.27;7.30;;;10.30;99.90;;;;;;5063748;28;20516;-58
2023/10/09 00:26:46;;;;;;;19.63;6.37;;;10.30;99.90;;;;;;5066351;28;20459;-59
2023/10/09 00:29:16;;;;;;;22.00;7.00;;;10.30;99.90;;;;;;5063935;28;20507;-58
2023/10/09 00:31:49;;;;;;;20.37;6.70;;;10.30;99.90;;;;;;5065965;28;20480;-59
2023/10/09 00:34:19;;;;;;;30.87;7.53;;;10.20;99.90;;;;;;5063753;28;20460;-57
2023/10/09 00:36:51;;;;;;;21.70;6.83;;;10.20;99.90;;;;;;5067293;28;21038;-59
2023/10/09 00:40:12;;;;;;;19.63;7.60;;;10.20;99.90;;;;;;5066267;28;20436;-58
2023/10/09 00:42:14;;;;;;;18.30;5.70;;;10.20;99.90;;;;;;5063483;28;20429;-58
2023/10/09 00:44:41;;;;;;;23.83;7.30;;;10.20;99.90;;;;;;5065253;28;20416;-59
2023/10/09 00:47:20;;;;;;;17.10;6.70;;;10.10;99.90;;;;;;5070553;28;20470;-58
2023/10/09 00:49:59;;;;;;;19.60;6.50;;;10.10;99.90;;;;;;5061967;28;20515;-58
2023/10/09 00:52:50;;;;;;;13.17;6.10;;;10.10;99.90;;;;;;5058581;28;20467;-59
2023/10/09 00:55:21;;;;;;;20.80;6.50;;;10.00;99.90;;;;;;5064799;28;20518;-59
2023/10/09 00:57:59;;;;;;;17.83;7.10;;;10.00;99.90;;;;;;5064010;28;20428;-58
2023/10/09 01:00:32;;;;;;;16.00;6.20;;;10.00;99.90;;;;;;5054764;28;20440;-59
2023/10/09 01:03:19;;;;;;;21.33;6.50;;;10.00;99.90;;;;;;5061672;28;20915;-59
2023/10/09 01:06:03;;;;;;;20.43;6.60;;;9.90;99.90;;;;;;5063856;28;20432;-59
2023/10/09 01:08:46;;;;;;;;;;;;;;;;;;;;;
2023/10/09 01:11:10;;;;;;;24.43;6.80;;;9.90;99.90;;;;;;5070033;28;20944;-59
2023/10/09 01:16:15;;;;;;;19.53;6.90;;;9.80;99.90;;;;;;5070837;28;20424;-59
2023/10/09 01:18:42;;;;;;;16.70;6.20;;;9.80;99.90;;;;;;5067456;28;20414;-58
2023/10/09 01:21:07;;;;;;;19.83;6.67;;;9.80;99.90;;;;;;5067533;28;20437;-59
2023/10/09 01:23:33;;;;;;;22.97;8.30;;;9.80;99.90;;;;;;5061788;28;20829;-59
2023/10/09 01:25:59;;;;;;;14.57;5.77;;;9.80;99.90;;;;;;5070691;28;20653;-59
2023/10/09 01:28:26;;;;;;;19.93;6.87;;;9.80;99.90;;;;;;5069819;28;20190;-59
2023/10/09 01:30:52;;;;;;;23.87;7.00;;;9.80;99.90;;;;;;5069695;28;20190;-60
2023/10/09 01:33:22;;;;;;;19.30;5.87;;;9.70;99.90;;;;;;5064005;28;20472;-58
2023/10/09 01:35:50;;;;;;;15.33;6.53;;;9.70;99.90;;;;;;5064345;28;20171;-58
2023/10/09 01:38:16;;;;;;;17.57;5.70;;;9.70;99.90;;;;;;5070023;28;20435;-58
2023/10/09 01:40:43;;;;;;;22.30;6.30;;;9.60;99.90;;;;;;5068947;28;20471;-58
2023/10/09 01:43:12;;;;;;;14.60;6.10;;;9.60;99.90;;;;;;5067515;28;20823;-59
2023/10/09 01:45:42;;;;;;;16.40;7.00;;;9.60;99.90;;;;;;5067451;28;20416;-59
2023/10/09 01:48:08;;;;;;;16.00;6.53;;;9.60;99.90;;;;;;5069867;28;20432;-59
2023/10/09 01:50:35;;;;;;;23.87;7.40;;;9.60;99.90;;;;;;5065435;28;20460;-59
2023/10/09 01:53:07;;;;;;;14.13;6.80;;;9.60;99.90;;;;;;5068437;28;20472;-59
2023/10/09 01:55:37;;;;;;;;;;;;;;;;;;;;;
2023/10/09 01:58:05;;;;;;;18.73;7.20;;;9.60;99.90;;;;;;5067410;28;20425;-58
2023/10/09 02:00:42;;;;;;;20.60;6.43;;;9.60;99.90;;;;;;5065698;28;21033;-60
2023/10/09 02:03:12;;;;;;;24.07;6.83;;;9.50;99.90;;;;;;5065117;28;20490;-60
2023/10/09 02:05:39;;;;;;;17.10;7.20;;;9.50;99.90;;;;;;5067598;28;20420;-58
2023/10/09 02:08:05;;;;;;;15.83;6.40;;;9.50;99.90;;;;;;5064978;28;20480;-59
2023/10/09 02:10:32;;;;;;;13.00;6.13;;;9.50;99.90;;;;;;5060686;28;20480;-59
2023/10/09 02:13:06;;;;;;;14.77;6.53;;;9.50;99.90;;;;;;5068410;28;20468;-59
2023/10/09 02:20:45;;;;;;;15.47;5.90;;;9.40;99.90;;;;;;5068646;28;20448;-59
2023/10/09 02:23:17;;;;;;;19.33;6.30;;;9.40;99.90;;;;;;5067160;28;20432;-59
2023/10/09 02:25:45;;;;;;;18.37;6.50;;;9.40;99.90;;;;;;5065391;28;20829;-59
2023/10/09 02:28:20;;;;;;;14.70;5.73;;;9.40;99.90;;;;;;5065329;28;20436;-59
2023/10/09 02:30:47;;;;;;;20.90;5.93;;;9.30;99.90;;;;;;5067265;28;20454;-59
2023/10/09 02:33:18;;;;;;;12.10;5.87;;;9.30;99.90;;;;;;5062386;28;20461;-59
2023/10/09 02:35:45;;;;;;;14.37;5.90;;;9.30;99.90;;;;;;5069425;28;20424;-59
2023/10/09 02:38:14;;;;;;;23.33;6.50;;;9.30;99.90;;;;;;5064980;28;20436;-59
2023/10/09 02:41:28;;;;;;;14.00;6.47;;;9.20;99.90;;;;;;5062537;28;20520;-59
2023/10/09 02:43:46;;;;;;;;;;;;;;;;;;;;;
2023/10/09 02:46:18;;;;;;;20.30;6.60;;;9.20;99.90;;;;;;5059678;28;20472;-59
2023/10/09 02:48:53;;;;;;;20.57;5.50;;;9.10;99.90;;;;;;5064896;28;20934;-58
2023/10/09 02:53:59;;;;;;;19.23;6.03;;;9.10;99.90;;;;;;5061524;28;20495;-59
2023/10/09 02:56:37;;;;;;;14.70;5.90;;;9.10;99.90;;;;;;5065881;28;20460;-58
2023/10/09 02:59:07;;;;;;;20.13;5.87;;;9.00;99.90;;;;;;5066178;28;20439;-58
2023/10/09 03:01:38;;;;;;;13.90;5.37;;;9.00;99.90;;;;;;5056748;28;20471;-58
2023/10/09 03:04:05;;;;;;;14.17;5.67;;;9.00;99.90;;;;;;5061970;28;20432;-59
2023/10/09 03:06:35;;;;;;;12.23;5.60;;;9.00;99.90;;;;;;5068465;28;20432;-59
2023/10/09 03:09:16;;;;;;;15.80;5.63;;;9.00;99.90;;;;;;5061302;28;20428;-60
2023/10/09 03:11:53;;;;;;;20.83;6.30;;;9.00;99.90;;;;;;5064210;28;20931;-58
2023/10/09 03:14:26;;;;;;;12.53;6.40;;;9.00;99.90;;;;;;5067340;28;20997;-59
2023/10/09 03:16:52;;;;;;;33.30;8.00;;;8.90;99.90;;;;;;5060808;28;20887;-59
2023/10/09 03:19:18;;;;;;;22.47;6.63;;;8.90;99.90;;;;;;5067818;28;20448;-59
2023/10/09 03:21:44;;;;;;;20.67;6.50;;;8.90;99.90;;;;;;5063084;28;20806;-59
2023/10/09 03:24:11;;;;;;;15.13;6.00;;;8.90;99.90;;;;;;5067315;28;20197;-59
2023/10/09 03:26:37;;;;;;;17.60;6.53;;;8.90;99.90;;;;;;5068120;28;20186;-59
2023/10/09 03:29:06;;;;;;;14.60;5.90;;;8.90;99.90;;;;;;5064257;28;20440;-59
2023/10/09 03:31:36;;;;;;;20.97;6.87;;;8.90;99.90;;;;;;5063985;28;20676;-59
2023/10/09 03:34:03;;;;;;;14.77;5.77;;;8.90;99.90;;;;;;5066668;28;20468;-61
2023/10/09 03:36:30;;;;;;;12.87;6.10;;;8.90;99.90;;;;;;5066130;28;20921;-59
2023/10/09 03:38:57;;;;;;;17.93;6.27;;;8.90;99.90;;;;;;5061470;28;20460;-59
2023/10/09 03:41:26;;;;;;;15.43;6.10;;;8.80;99.90;;;;;;5064479;28;20448;-59
2023/10/09 03:43:54;;;;;;;14.60;5.80;;;8.80;99.90;;;;;;5064774;28;20425;-59
2023/10/09 03:46:32;;;;;;;16.00;6.20;;;8.80;99.90;;;;;;5066719;28;20436;-58
2023/10/09 03:49:00;;;;;;;16.10;7.13;;;8.80;99.90;;;;;;5054576;28;20799;-60
2023/10/09 03:51:27;;;;;;;16.83;6.70;;;8.80;99.90;;;;;;5063336;28;20453;-59
2023/10/09 03:53:52;;;;;;;14.60;6.20;;;8.80;99.90;;;;;;5067178;28;20480;-58
2023/10/09 03:56:21;;;;;;;19.90;7.33;;;8.80;99.90;;;;;;5058824;28;20433;-58
2023/10/09 03:58:49;;;;;;;14.87;7.37;;;8.80;99.90;;;;;;5068063;28;20641;-58
2023/10/09 04:01:27;;;;;;;;;;;;;;;;;;;;;
2023/10/09 04:03:51;;;;;;;19.37;6.80;;;8.90;99.90;;;;;;5062015;28;20942;-60
2023/10/09 04:06:17;;;;;;;20.80;7.87;;;8.90;99.90;;;;;;5066784;28;20951;-58
2023/10/09 04:08:48;;;;;;;16.00;6.40;;;8.90;99.90;;;;;;5064414;28;20468;-58
2023/10/09 04:11:17;;;;;;;15.20;6.40;;;8.90;99.90;;;;;;5064725;28;20457;-59
2023/10/09 04:13:46;;;;;;;24.93;7.80;;;8.90;99.90;;;;;;5065862;28;20500;-59
2023/10/09 04:17:04;;;;;;;14.10;6.83;;;8.90;99.90;;;;;;5063545;28;20428;-58
2023/10/09 04:19:08;;;;;;;18.03;6.87;;;8.90;99.90;;;;;;5064305;28;20911;-58
2023/10/09 04:21:34;;;;;;;;;;;;;;;;;;;;;
2023/10/09 04:26:47;;;;;;;16.50;5.53;;;8.90;99.90;;;;;;5070949;28;20558;-59
2023/10/09 04:29:37;;;;;;;18.73;6.73;;;8.90;99.90;;;;;;5068363;28;20946;-61
2023/10/09 04:32:07;;;;;;;13.30;6.23;;;8.90;99.90;;;;;;5065908;28;20424;-59
2023/10/09 04:34:37;;;;;;;18.43;6.63;;;8.90;99.90;;;;;;5060718;28;20435;-59
2023/10/09 04:39:49;;;;;;;17.23;6.37;;;8.90;99.90;;;;;;5066325;28;20419;-59
2023/10/09 04:42:58;;;;;;;20.30;6.80;;;8.90;99.90;;;;;;5067593;28;20538;-59
2023/10/09 04:47:37;;;;;;;15.63;7.37;;;8.90;99.90;;;;;;5068672;28;20424;-59
2023/10/09 04:50:11;;;;;;;15.87;5.63;;;8.90;99.90;;;;;;5068020;28;20437;-60
2023/10/09 04:57:45;;;;;;;14.30;6.10;;;8.80;99.90;;;;;;5069216;28;20437;-59
2023/10/09 05:02:58;;;;;;;17.83;6.03;;;8.80;99.90;;;;;;5058358;28;21125;-59
2023/10/09 05:05:58;;;;;;;14.40;5.30;;;8.80;99.90;;;;;;5060322;28;20429;-61
2023/10/09 05:16:04;;;;;;;15.77;7.27;;;8.70;99.90;;;;;;5068641;28;20450;-59
2023/10/09 05:18:36;;;;;;;15.57;7.07;;;8.70;99.90;;;;;;5069704;28;20522;-59
2023/10/09 05:24:15;;;;;;;15.30;5.80;;;8.70;99.90;;;;;;5067801;28;20451;-59
2023/10/09 05:37:33;;;;;;;15.27;6.93;;;8.60;99.90;;;;;;5068500;28;20406;-59
2023/10/09 05:50:34;;;;;;;12.37;6.20;;;8.60;99.90;;;;;;5066647;28;20530;-60
2023/10/09 06:03:48;;;;;;;20.30;8.23;;;8.70;99.90;;;;;;5066795;28;20427;-59
2023/10/09 06:06:32;;;;;;;21.27;8.67;;;8.80;99.90;;;;;;5063979;28;20456;-60
2023/10/09 06:11:41;;;;;;;15.57;8.30;;;8.90;99.90;;;;;;5068218;28;20436;-59
2023/10/09 06:16:41;;;;;;;24.53;8.10;;;9.00;99.90;;;;;;5068721;28;20943;-59
2023/10/09 06:19:11;;;;;;;23.60;8.00;;;9.10;99.90;;;;;;5069491;28;20428;-60
2023/10/09 06:24:22;;;;;;;20.83;8.20;;;9.20;99.90;;;;;;5063833;28;20794;-59
2023/10/09 06:27:12;;;;;;;21.53;7.27;;;9.30;99.90;;;;;;5068215;28;20451;-60
2023/10/09 06:35:15;;;;;;;23.70;8.33;;;9.50;99.90;;;;;;5069208;28;20461;-60
2023/10/09 06:38:10;;;;;;;20.30;6.70;;;9.60;99.90;;;;;;5067017;28;20420;-59
2023/10/09 06:43:26;;;;;;;17.77;7.80;;;9.70;99.90;;;;;;5068032;28;20447;-60
2023/10/09 06:46:36;;;;;;;19.73;8.40;;;9.80;99.90;;;;;;5066519;28;20414;-59
2023/10/09 06:48:45;;;;;;;11.23;7.33;;;9.90;99.90;;;;;;5063354;28;20424;-59
2023/10/09 06:51:40;;;;;;;16.87;7.40;;;9.90;99.90;;;;;;5066360;28;20452;-59
2023/10/09 06:54:09;;;;;;;19.30;7.33;;;10.10;99.90;;;;;;5062428;28;20948;-59
2023/10/09 06:59:21;;;;;;;27.70;9.07;;;10.20;99.90;;;;;;5066238;28;20412;-60
2023/10/09 07:02:18;;;;;;;31.10;8.03;;;10.20;99.90;;;;;;5068305;28;20186;-59
2023/10/09 07:07:07;;;;;;;14.27;7.33;;;10.40;99.90;;;;;;5062637;28;20425;-59
2023/10/09 07:09:42;;;;;;;30.30;9.67;;;10.50;99.90;;;;;;5065997;28;20428;-59
2023/10/09 07:12:43;;;;;;;27.93;8.57;;;10.60;99.90;;;;;;5068354;28;20416;-59
2023/10/09 07:15:21;;;;;;;30.37;8.30;;;10.70;99.90;;;;;;5065405;28;20401;-59
2023/10/09 07:17:46;;;;;;;19.13;9.00;;;10.80;99.90;;;;;;5068208;28;20938;-59
2023/10/09 07:23:12;;;;;;;33.57;16.00;;;11.00;99.90;;;;;;5060340;28;20198;-58
2023/10/09 07:25:42;;;;;;;30.00;15.20;;;11.20;99.90;;;;;;5065827;28;20413;-58
2023/10/09 07:28:36;;;;;;;29.03;13.77;;;11.40;99.90;;;;;;5068200;28;20466;-58
2023/10/09 07:31:08;;;;;;;31.30;11.37;;;11.50;99.90;;;;;;5064239;28;20433;-60
2023/10/09 07:33:51;;;;;;;19.30;8.93;;;11.80;99.90;;;;;;5065932;28;20480;-59
2023/10/09 07:36:29;;;;;;;31.30;9.47;;;11.90;99.90;;;;;;5068586;28;20417;-60
2023/10/09 07:38:55;;;;;;;20.10;8.90;;;12.10;99.90;;;;;;5066475;28;21003;-59
2023/10/09 07:43:47;;;;;;;32.17;11.53;;;12.40;99.90;;;;;;5067068;28;20417;-59
2023/10/09 07:46:32;;;;;;;24.73;11.60;;;12.40;99.90;;;;;;5066365;28;20171;-58
2023/10/09 07:49:09;;;;;;;28.23;12.20;;;12.60;99.90;;;;;;5057446;28;20599;-60
2023/10/09 07:51:38;;;;;;;28.77;10.53;;;12.70;99.90;;;;;;5066930;28;20455;-58
2023/10/09 07:54:07;;;;;;;31.00;11.60;;;12.80;99.90;;;;;;5066985;28;20464;-58
2023/10/09 07:56:38;;;;;;;20.73;9.00;;;12.90;99.90;;;;;;5060806;28;20460;-59
2023/10/09 07:59:10;;;;;;;25.27;10.90;;;13.00;99.90;;;;;;5061492;28;20479;-60
2023/10/09 08:01:52;;;;;;;29.30;11.20;;;13.20;99.90;;;;;;5065678;28;20436;-60
2023/10/09 08:07:34;;;;;;;19.10;8.67;;;13.40;99.90;;;;;;5064187;28;20424;-59
2023/10/09 08:15:28;;;;;;;19.87;7.27;;;13.80;99.90;;;;;;5067227;28;20938;-59
2023/10/09 08:18:03;;;;;;;21.33;8.23;;;13.90;99.90;;;;;;5067470;28;20420;-59
2023/10/09 08:23:28;;;;;;;21.93;10.50;;;14.20;99.90;;;;;;5064756;28;20995;-60
2023/10/09 08:26:14;;;;;;;21.63;9.43;;;14.30;99.90;;;;;;5066858;28;20416;-60
2023/10/09 08:28:48;;;;;;;24.43;9.97;;;14.40;99.90;;;;;;5060295;28;20460;-59
2023/10/09 08:31:45;;;;;;;32.60;9.50;;;14.40;99.90;;;;;;5066662;28;20432;-60
2023/10/09 08:34:23;;;;;;;25.03;8.50;;;14.50;99.90;;;;;;5063930;28;20488;-60
2023/10/09 08:36:52;;;;;;;28.93;8.90;;;14.60;99.90;;;;;;5066014;28;20413;-60
2023/10/09 08:39:25;;;;;;;19.40;8.77;;;14.60;99.90;;;;;;5063564;28;20424;-60
2023/10/09 08:41:52;;;;;;;19.23;8.27;;;14.70;99.90;;;;;;5062952;28;20447;-60
2023/10/09 08:44:22;;;;;;;21.73;8.60;;;14.80;99.90;;;;;;5065741;28;20428;-61
2023/10/09 08:46:50;;;;;;;16.60;6.13;;;14.90;99.90;;;;;;5056606;28;20424;-59
2023/10/09 08:49:16;;;;;;;16.80;6.97;;;15.10;99.90;;;;;;5067189;28;20425;-59
2023/10/09 08:51:42;;;;;;;20.00;8.23;;;15.20;99.90;;;;;;5066299;28;20463;-60
2023/10/09 08:54:11;;;;;;;20.93;7.70;;;15.50;99.90;;;;;;5065347;28;20468;-59
2023/10/09 08:56:39;;;;;;;29.57;7.00;;;15.60;99.90;;;;;;5056667;28;20174;-59
2023/10/09 08:59:05;;;;;;;28.53;8.30;;;15.80;99.90;;;;;;5061127;28;20416;-59
2023/10/09 09:01:34;;;;;;;26.23;6.30;;;16.00;99.90;;;;;;5060819;28;20629;-59
2023/10/09 09:04:02;;;;;;;21.10;7.10;;;16.20;99.90;;;;;;5065199;28;21005;-59
2023/10/09 09:06:38;;;;;;;21.03;6.63;;;16.30;99.90;;;;;;5065351;28;20433;-59
2023/10/09 09:09:16;;;;;;;26.17;6.10;;;16.50;99.90;;;;;;5070722;28;20423;-60
2023/10/09 09:11:48;;;;;;;24.47;7.10;;;16.60;99.90;;;;;;5068888;28;20551;-60
2023/10/09 09:14:18;;;;;;;28.03;6.67;;;16.70;99.90;;;;;;5064082;28;20467;-59
2023/10/09 09:16:48;;;;;;;22.73;6.93;;;16.80;99.90;;;;;;5071073;28;20412;-59
2023/10/09 09:19:17;;;;;;;33.50;11.10;;;16.90;99.90;;;;;;5071456;28;20424;-60
2023/10/09 09:21:54;;;;;;;33.80;6.37;;;17.00;99.90;;;;;;5066369;28;20478;-59
2023/10/09 09:26:59;;;;;;;15.63;4.23;;;17.10;95.50;;;;;;5065433;28;20504;-59
2023/10/09 09:29:40;;;;;;;21.80;4.10;;;17.20;74.90;;;;;;5067631;28;20934;-58
2023/10/09 09:32:17;;;;;;;20.43;4.60;;;17.50;64.10;;;;;;5069915;28;20961;-59
2023/10/09 09:35:04;;;;;;;24.00;3.90;;;17.70;63.40;;;;;;5069386;28;20430;-59
2023/10/09 09:43:05;;;;;;;14.63;4.40;;;18.40;56.40;;;;;;5069771;28;20999;-59
2023/10/09 09:45:35;;;;;;;22.70;3.73;;;18.60;54.70;;;;;;5068579;28;20424;-59
2023/10/09 09:48:05;;;;;;;14.30;3.47;;;18.90;53.00;;;;;;5061435;28;20432;-59
2023/10/09 09:50:32;;;;;;;21.67;4.37;;;19.00;52.20;;;;;;5066351;28;20452;-59
2023/10/09 09:52:59;;;;;;;12.47;3.87;;;19.20;52.00;;;;;;5063987;28;20550;-60
2023/10/09 09:55:31;;;;;;;17.83;3.70;;;19.30;50.70;;;;;;5055841;28;20595;-59
2023/10/09 09:57:58;;;;;;;18.03;3.33;;;19.50;50.30;;;;;;5060548;28;20504;-59
2023/10/09 10:00:30;;;;;;;17.77;3.10;;;19.60;50.90;;;;;;5065039;28;21015;-60
2023/10/09 10:03:10;;;;;;;23.90;3.97;;;19.70;51.70;;;;;;5064269;28;20916;-59
2023/10/09 10:05:37;;;;;;;17.07;3.70;;;19.80;49.50;;;;;;5060534;28;20442;-59
2023/10/09 10:08:05;;;;;;;23.73;3.90;;;19.80;50.40;;;;;;5069287;28;20425;-59
2023/10/09 10:10:57;;;;;;;27.27;3.37;;;19.90;50.30;;;;;;5060438;28;20535;-59
2023/10/09 10:13:40;;;;;;;18.20;3.60;;;19.90;49.70;;;;;;5064063;28;21142;-59
2023/10/09 10:16:20;;;;;;;17.33;4.17;;;20.00;49.20;;;;;;5065465;28;20443;-59
2023/10/09 10:18:59;;;;;;;15.13;3.33;;;20.00;48.70;;;;;;5067329;28;20448;-60
2023/10/09 10:24:13;;;;;;;16.67;4.33;;;20.20;49.10;;;;;;5064406;28;20444;-60
2023/10/09 10:26:40;;;;;;;14.37;3.70;;;20.30;50.80;;;;;;5063133;28;21218;-60
2023/10/09 10:29:22;;;;;;;20.90;5.00;;;20.40;52.30;;;;;;5065654;28;20520;-59
2023/10/09 10:32:08;;;;;;;21.80;3.63;;;20.50;53.60;;;;;;5065209;28;20447;-60
2023/10/09 10:34:56;;;;;;;15.17;3.60;;;20.50;54.40;;;;;;5064439;28;20849;-60
2023/10/09 10:37:37;;;;;;;20.50;4.70;;;20.50;54.90;;;;;;5059326;28;20476;-60
2023/10/09 10:40:14;;;;;;;15.50;4.03;;;20.60;55.50;;;;;;5063396;28;20867;-60
2023/10/09 10:43:09;;;;;;;31.00;4.50;;;20.60;55.40;;;;;;5067276;28;20463;-60
2023/10/09 10:45:38;;;;;;;19.37;4.60;;;20.60;55.50;;;;;;5061838;28;20436;-60
2023/10/09 10:48:08;;;;;;;19.00;4.53;;;20.70;55.40;;;;;;5066422;28;20425;-60
2023/10/09 10:53:15;;;;;;;15.40;4.80;;;20.70;56.00;;;;;;5058481;28;20504;-60
2023/10/09 10:56:18;;;;;;;20.70;4.40;;;20.70;56.10;;;;;;5055928;28;20609;-59
2023/10/09 11:04:25;;;;;;;17.23;5.67;;;20.50;56.60;;;;;;5061969;28;20439;-59
2023/10/09 11:07:06;;;;;;;19.70;4.83;;;20.50;56.80;;;;;;5065098;28;20974;-59
2023/10/09 11:12:42;;;;;;;24.07;6.00;;;20.50;58.10;;;;;;5064722;28;20440;-59
2023/10/09 11:15:29;;;;;;;24.70;4.60;;;20.50;58.20;;;;;;5052173;28;20440;-60
2023/10/09 11:18:16;;;;;;;18.10;4.50;;;20.40;58.60;;;;;;5061806;28;20429;-59
2023/10/09 11:20:56;;;;;;;24.07;4.77;;;20.40;59.00;;;;;;5062180;28;20819;-59
2023/10/09 11:26:40;;;;;;;13.87;4.30;;;20.50;59.20;;;;;;5057448;28;20466;-59
2023/10/09 11:29:29;;;;;;;15.00;4.27;;;20.50;59.40;;;;;;5063823;28;20417;-60
2023/10/09 11:32:03;;;;;;;19.40;4.70;;;20.60;59.60;;;;;;5062915;28;20456;-60
2023/10/09 11:34:29;;;;;;;21.27;4.90;;;20.60;59.50;;;;;;5064178;28;20468;-60
2023/10/09 11:37:04;;;;;;;12.13;4.10;;;20.70;59.20;;;;;;5065177;28;20440;-60
2023/10/09 11:39:34;;;;;;;24.97;5.10;;;20.70;59.40;;;;;;5057519;28;20210;-60
2023/10/09 11:42:08;;;;;;;25.20;5.40;;;20.80;59.70;;;;;;5061287;28;20996;-59
2023/10/09 11:44:44;;;;;;;25.57;5.23;;;20.80;59.80;;;;;;5052374;28;20508;-58
2023/10/09 11:52:37;;;;;;;17.73;4.30;;;20.80;60.00;;;;;;5059546;28;20534;-60
2023/10/09 11:55:06;;;;;;;13.63;4.47;;;20.80;59.80;;;;;;5056577;28;20440;-59
2023/10/09 11:57:36;;;;;;;18.33;5.10;;;20.80;59.80;;;;;;5053747;28;20790;-61
2023/10/09 12:00:46;;;;;;;20.40;4.90;;;20.80;60.50;;;;;;5061659;28;20449;-59
2023/10/09 12:02:52;;;;;;;17.93;5.13;;;20.80;59.90;;;;;;5062527;28;20970;-60
2023/10/09 12:05:19;;;;;;;28.77;4.60;;;20.90;59.30;;;;;;5058380;28;20464;-59
2023/10/09 12:07:54;;;;;;;16.97;4.53;;;20.90;59.10;;;;;;5062467;28;20268;-59
2023/10/09 12:10:25;;;;;;;16.07;3.33;;;20.90;58.60;;;;;;5057938;28;20451;-58
2023/10/09 12:12:57;;;;;;;17.20;3.20;;;21.00;53.50;;;;;;5061766;28;20465;-60
2023/10/09 12:15:23;;;;;;;25.53;3.80;;;21.00;51.20;;;;;;5058107;28;20436;-59
2023/10/09 12:17:53;;;;;;;16.23;3.63;;;21.10;50.50;;;;;;5060791;28;20438;-58
2023/10/09 12:20:31;;;;;;;14.90;3.30;;;21.20;49.50;;;;;;5061812;28;20457;-59
2023/10/09 12:22:58;;;;;;;11.20;3.10;;;21.20;49.50;;;;;;5058192;28;20424;-60
2023/10/09 12:25:25;;;;;;;17.27;3.63;;;21.30;50.20;;;;;;5061443;28;20425;-59
2023/10/09 12:27:54;;;;;;;16.60;4.73;;;21.40;49.60;;;;;;5063214;28;20954;-59
2023/10/09 12:30:26;;;;;;;21.13;5.03;;;21.50;52.40;;;;;;5060008;28;20452;-59
2023/10/09 12:32:53;;;;;;;27.70;4.30;;;21.60;54.30;;;;;;5062456;28;20474;-59
2023/10/09 12:35:18;;;;;;;19.00;5.30;;;21.70;56.00;;;;;;5061030;28;20444;-59
2023/10/09 12:37:44;;;;;;;17.80;4.40;;;21.70;56.90;;;;;;5063089;28;20466;-60
2023/10/09 12:40:10;;;;;;;24.13;5.47;;;21.70;57.30;;;;;;5059474;28;20189;-59
2023/10/09 12:42:36;;;;;;;19.03;4.47;;;21.70;58.00;;;;;;5067559;28;20170;-60
2023/10/09 12:45:08;;;;;;;18.33;4.70;;;21.70;58.30;;;;;;5063071;28;20482;-59
2023/10/09 12:47:37;;;;;;;26.03;4.57;;;21.70;58.70;;;;;;5066927;28;21070;-59
2023/10/09 12:50:12;;;;;;;26.37;5.53;;;21.70;59.10;;;;;;5062030;28;20456;-59
2023/10/09 12:52:38;;;;;;;20.17;4.40;;;21.70;59.30;;;;;;5058434;28;20467;-59
2023/10/09 12:55:08;;;;;;;20.17;4.40;;;21.80;59.70;;;;;;5053625;28;20453;-59
2023/10/09 12:57:34;;;;;;;17.20;4.97;;;21.80;59.80;;;;;;5061681;28;20261;-60
2023/10/09 12:59:59;;;;;;;14.77;5.73;;;21.90;60.10;;;;;;5057421;28;20575;-59
2023/10/09 13:02:28;;;;;;;17.50;4.80;;;21.90;60.60;;;;;;5063084;28;20170;-60
2023/10/09 13:04:55;;;;;;;24.90;5.20;;;21.80;60.80;;;;;;5062699;28;20170;-60
2023/10/09 13:07:22;;;;;;;14.97;5.20;;;21.70;60.70;;;;;;5070298;28;20577;-60
2023/10/09 13:10:08;;;;;;;24.47;4.77;;;21.60;61.30;;;;;;5062269;28;20481;-60
2023/10/09 13:12:38;;;;;;;31.03;5.90;;;21.50;61.90;;;;;;5066793;28;21082;-61
2023/10/09 13:15:09;;;;;;;14.27;5.47;;;21.50;62.10;;;;;;5065350;28;20436;-59
2023/10/09 13:17:36;;;;;;;17.83;4.70;;;21.40;62.30;;;;;;5068579;28;20522;-60
2023/10/09 13:20:12;;;;;;;18.17;5.53;;;21.30;62.60;;;;;;5069320;28;20440;-59
2023/10/09 13:22:41;;;;;;;16.90;4.97;;;21.20;62.60;;;;;;5064826;28;20554;-59
2023/10/09 13:25:15;;;;;;;36.50;5.70;;;21.20;62.80;;;;;;5068787;28;20475;-60
2023/10/09 13:27:50;;;;;;;19.63;5.37;;;21.20;63.10;;;;;;5068539;28;20432;-60
2023/10/09 13:30:23;;;;;;;20.07;5.50;;;21.10;63.00;;;;;;5065506;28;20440;-59
2023/10/09 13:32:51;;;;;;;16.80;4.80;;;21.00;63.20;;;;;;5062073;28;20453;-59
2023/10/09 13:35:27;;;;;;;17.57;5.20;;;21.00;63.70;;;;;;5067677;28;20461;-60
2023/10/09 13:37:55;;;;;;;20.73;4.97;;;20.90;63.90;;;;;;5056925;28;20864;-59
2023/10/09 13:40:28;;;;;;;18.87;5.20;;;20.90;63.70;;;;;;5064199;28;20452;-60
2023/10/09 13:42:59;;;;;;;15.00;4.70;;;20.90;63.50;;;;;;5062001;28;20440;-59
2023/10/09 13:45:27;;;;;;;17.50;4.83;;;20.80;63.50;;;;;;5065070;28;20481;-60
2023/10/09 13:47:57;;;;;;;17.67;5.30;;;20.80;63.50;;;;;;5067025;28;20432;-59
2023/10/09 13:50:32;;;;;;;26.20;5.07;;;20.80;63.70;;;;;;5064903;28;20456;-60
2023/10/09 13:52:58;;;;;;;19.30;4.80;;;20.80;63.80;;;;;;5064118;28;20509;-59
2023/10/09 13:55:31;;;;;;;15.87;4.87;;;20.90;63.90;;;;;;5060589;28;20408;-60
2023/10/09 13:57:57;;;;;;;13.77;4.97;;;20.90;64.00;;;;;;5068607;28;20454;-61
2023/10/09 14:00:42;;;;;;;24.27;5.27;;;20.90;64.00;;;;;;5064078;28;20873;-60
2023/10/09 14:03:14;;;;;;;22.67;4.83;;;20.90;64.20;;;;;;5061947;28;20422;-61
2023/10/09 14:05:54;;;;;;;27.53;5.30;;;20.90;64.30;;;;;;5054472;28;20502;-60
2023/10/09 14:08:23;;;;;;;19.30;5.20;;;21.00;64.50;;;;;;5061354;28;20464;-60
2023/10/09 14:10:49;;;;;;;20.53;4.77;;;21.00;64.80;;;;;;5064992;28;20437;-58
2023/10/09 14:13:25;;;;;;;13.47;5.10;;;21.00;64.50;;;;;;5067374;28;20464;-59
2023/10/09 14:15:54;;;;;;;24.23;5.47;;;21.10;64.40;;;;;;5062968;28;20427;-59
2023/10/09 14:18:21;;;;;;;18.93;5.00;;;21.20;63.90;;;;;;5066171;28;20447;-60
2023/10/09 14:20:47;;;;;;;12.80;4.50;;;21.40;63.00;;;;;;5064335;28;20536;-60
2023/10/09 14:23:20;;;;;;;15.47;4.60;;;21.50;62.60;;;;;;5065621;28;20527;-59
2023/10/09 14:25:49;;;;;;;19.97;4.63;;;21.70;62.40;;;;;;5065957;28;20576;-59
2023/10/09 14:28:18;;;;;;;19.43;4.73;;;22.10;61.80;;;;;;5062123;28;20522;-59
2023/10/09 14:30:47;;;;;;;18.30;5.60;;;22.40;60.40;;;;;;5063532;28;21000;-59
2023/10/09 14:33:12;;;;;;;19.47;5.30;;;22.40;59.70;;;;;;5065264;28;20467;-59
2023/10/09 14:35:40;;;;;;;25.20;5.00;;;22.40;59.40;;;;;;5061407;28;20432;-59
2023/10/09 14:38:12;;;;;;;17.23;5.07;;;22.30;59.30;;;;;;5059509;28;20660;-59
2023/10/09 14:40:44;;;;;;;13.27;4.70;;;22.20;59.60;;;;;;5061306;28;20437;-59
2023/10/09 14:43:18;;;;;;;17.97;6.13;;;22.10;59.80;;;;;;5066179;28;20432;-59
2023/10/09 14:45:53;;;;;;;17.70;5.10;;;22.10;60.50;;;;;;5063140;28;20851;-58
2023/10/09 14:48:25;;;;;;;25.80;5.90;;;22.30;60.60;;;;;;5063931;28;20935;-59
2023/10/09 14:51:04;;;;;;;20.63;5.30;;;22.80;59.60;;;;;;5065726;28;20465;-59
2023/10/09 14:53:30;;;;;;;20.30;4.63;;;23.00;58.20;;;;;;5062218;28;20465;-60
2023/10/09 14:55:56;;;;;;;25.67;5.20;;;22.80;58.00;;;;;;5063301;28;20513;-59
2023/10/09 14:58:25;;;;;;;20.57;5.47;;;22.60;57.90;;;;;;5066980;28;20190;-59
2023/10/09 15:00:52;;;;;;;19.00;5.20;;;22.30;58.40;;;;;;5058834;28;20444;-59
2023/10/09 15:03:19;;;;;;;20.60;5.13;;;22.00;59.00;;;;;;5057727;28;20520;-59
2023/10/09 15:05:45;;;;;;;20.20;6.03;;;21.80;59.80;;;;;;5066069;28;20954;-59
2023/10/09 15:08:11;;;;;;;18.80;4.57;;;21.50;60.40;;;;;;5062969;28;22024;-60
2023/10/09 15:10:56;;;;;;;29.10;5.60;;;21.40;61.20;;;;;;5061317;28;20455;-59
2023/10/09 15:13:27;;;;;;;40.27;5.90;;;21.20;61.80;;;;;;5063185;28;20466;-59
2023/10/09 15:15:54;;;;;;;20.10;5.43;;;21.10;62.30;;;;;;5063614;28;20432;-60
2023/10/09 15:18:21;;;;;;;17.60;6.13;;;20.90;62.80;;;;;;5065835;28;20463;-60
2023/10/09 15:20:47;;;;;;;25.70;5.57;;;20.80;63.30;;;;;;5059622;28;20448;-59
2023/10/09 15:23:13;;;;;;;17.70;5.00;;;20.70;63.70;;;;;;5061012;28;20868;-59
2023/10/09 15:25:39;;;;;;;16.57;5.40;;;20.70;64.10;;;;;;5063390;28;20464;-59
2023/10/09 15:28:09;;;;;;;27.30;6.57;;;20.60;64.20;;;;;;5059557;28;20213;-59
2023/10/09 15:30:37;;;;;;;16.77;5.33;;;20.50;64.30;;;;;;5063245;28;20263;-58